Time;durP1;ratioP1;P1;durP2;ratioP2;P2;SDS_P1;SDS_P2;PMS_P1;PMS_P2;Temp;Humidity;BMP_temperature;BMP_pressure;BME280_temperature;BME280_humidity;BME280_pressure;Samples;Min_cycle;Max_cycle;Signal;HPM_P1;HPM_P2
2021/10/26 00:01:50;;;;;;;22.60;12.40;;;;;;;-128.00;-1.00;-1.00;134550;1203;1096004;-78
2021/10/26 00:04:56;;;;;;;24.90;13.70;;;;;;;-128.00;-1.00;-1.00;133664;1201;1097369;-79
2021/10/26 00:08:01;;;;;;;26.80;13.30;;;;;;;-128.00;-1.00;-1.00;133737;1203;1095385;-77
2021/10/26 00:11:06;;;;;;;24.20;12.90;;;;;;;-128.00;-1.00;-1.00;133633;1200;1096817;-78
2021/10/26 00:14:12;;;;;;;24.90;13.10;;;;;;;-128.00;-1.00;-1.00;134387;1187;1096449;-77
2021/10/26 00:17:18;;;;;;;23.80;13.60;;;;;;;-128.00;-1.00;-1.00;135150;1201;1097490;-75
2021/10/26 00:20:23;;;;;;;22.30;12.80;;;;;;;-128.00;-1.00;-1.00;133701;1206;1095172;-75
2021/10/26 00:23:29;;;;;;;24.90;13.50;;;;;;;-128.00;-1.00;-1.00;133700;1201;1097742;-77
2021/10/26 00:26:35;;;;;;;23.90;12.80;;;;;;;-128.00;-1.00;-1.00;133905;1203;1097235;-80
2021/10/26 00:29:40;;;;;;;23.80;13.40;;;;;;;-128.00;-1.00;-1.00;133701;1200;1097435;-79
2021/10/26 00:32:46;;;;;;;26.90;12.50;;;;;;;-128.00;-1.00;-1.00;134292;1202;1098418;-84
2021/10/26 00:35:51;;;;;;;22.80;12.80;;;;;;;-128.00;-1.00;-1.00;133952;1202;1096882;-81
2021/10/26 00:39:00;;;;;;;21.90;11.60;;;;;;;-128.00;-1.00;-1.00;133767;1203;1096548;-78
2021/10/26 00:42:07;;;;;;;23.50;12.40;;;;;;;-128.00;-1.00;-1.00;133649;1200;1096640;-77
2021/10/26 00:45:12;;;;;;;24.80;12.10;;;;;;;-128.00;-1.00;-1.00;134086;1203;1096797;-81
2021/10/26 00:48:18;;;;;;;22.20;12.10;;;;;;;-128.00;-1.00;-1.00;134074;1203;1096675;-82
2021/10/26 00:51:24;;;;;;;21.50;12.60;;;;;;;-128.00;-1.00;-1.00;133723;1200;1096630;-82
2021/10/26 00:54:29;;;;;;;25.50;12.90;;;;;;;-128.00;-1.00;-1.00;133760;1203;1093715;-80
2021/10/26 00:57:40;;;;;;;22.70;12.50;;;;;;;-128.00;-1.00;-1.00;133719;1202;1096599;-79
2021/10/26 01:00:49;;;;;;;23.90;12.70;;;;;;;-128.00;-1.00;-1.00;133733;1203;1097096;-79
2021/10/26 01:03:55;;;;;;;24.30;12.40;;;;;;;-128.00;-1.00;-1.00;133877;1203;1095782;-82
2021/10/26 01:07:00;;;;;;;24.80;12.70;;;;;;;-128.00;-1.00;-1.00;133626;1203;1095966;-82
2021/10/26 01:10:09;;;;;;;22.10;11.90;;;;;;;-128.00;-1.00;-1.00;133808;1203;1095931;-80
2021/10/26 01:13:17;;;;;;;22.00;11.40;;;;;;;-128.00;-1.00;-1.00;133689;1203;1093623;-80
2021/10/26 01:16:22;;;;;;;20.60;11.20;;;;;;;-128.00;-1.00;-1.00;133766;1193;1096514;-80
2021/10/26 01:19:28;;;;;;;20.10;11.10;;;;;;;-128.00;-1.00;-1.00;133700;1203;1097827;-79
2021/10/26 01:22:39;;;;;;;28.00;11.90;;;;;;;-128.00;-1.00;-1.00;133709;1203;1096605;-78
2021/10/26 01:25:45;;;;;;;20.50;10.20;;;;;;;-128.00;-1.00;-1.00;133971;1194;1096551;-75
2021/10/26 01:28:50;;;;;;;18.30;10.50;;;;;;;-128.00;-1.00;-1.00;133682;1203;1096450;-76
2021/10/26 01:31:56;;;;;;;20.50;10.80;;;;;;;-128.00;-1.00;-1.00;133776;1202;1097070;-79
2021/10/26 01:35:09;;;;;;;21.10;11.10;;;;;;;-128.00;-1.00;-1.00;134496;1203;1096101;-90
2021/10/26 01:38:16;;;;;;;18.50;11.00;;;;;;;-128.00;-1.00;-1.00;134891;1200;1095360;-90
2021/10/26 01:41:21;;;;;;;20.20;10.90;;;;;;;-128.00;-1.00;-1.00;134644;1203;1093861;-87
2021/10/26 01:44:27;;;;;;;19.00;10.70;;;;;;;-128.00;-1.00;-1.00;134105;1200;1095072;-82
2021/10/26 01:47:37;;;;;;;19.60;10.30;;;;;;;-128.00;-1.00;-1.00;134836;1203;1097337;-86
2021/10/26 01:50:45;;;;;;;19.70;10.50;;;;;;;-128.00;-1.00;-1.00;135659;1200;1093727;-83
2021/10/26 01:53:51;;;;;;;19.60;10.30;;;;;;;-128.00;-1.00;-1.00;136372;1202;1094745;-84
2021/10/26 01:56:57;;;;;;;20.30;10.10;;;;;;;-128.00;-1.00;-1.00;136049;1201;1098017;-84
2021/10/26 02:00:23;;;;;;;19.60;10.60;;;;;;;-128.00;-1.00;-1.00;134354;1202;1096563;-84
2021/10/26 02:03:29;;;;;;;17.50;9.70;;;;;;;-128.00;-1.00;-1.00;133921;1203;1096277;-84
2021/10/26 02:06:35;;;;;;;20.90;9.80;;;;;;;-128.00;-1.00;-1.00;134043;1203;1096356;-84
2021/10/26 02:09:40;;;;;;;17.00;9.40;;;;;;;-128.00;-1.00;-1.00;134415;1203;1096966;-84
2021/10/26 02:12:46;;;;;;;18.80;10.60;;;;;;;-128.00;-1.00;-1.00;134488;1201;1096747;-84
2021/10/26 02:15:52;;;;;;;22.60;10.70;;;;;;;-128.00;-1.00;-1.00;134906;1203;1096690;-85
2021/10/26 02:18:57;;;;;;;20.90;10.20;;;;;;;-128.00;-1.00;-1.00;133635;1202;1096123;-83
2021/10/26 02:22:04;;;;;;;22.40;10.90;;;;;;;-128.00;-1.00;-1.00;133789;1203;1096866;-83
2021/10/26 02:25:09;;;;;;;20.60;10.60;;;;;;;-128.00;-1.00;-1.00;133704;1200;1097424;-82
2021/10/26 02:28:15;;;;;;;19.20;10.40;;;;;;;-128.00;-1.00;-1.00;133837;1200;1095448;-84
2021/10/26 02:31:21;;;;;;;19.00;10.20;;;;;;;-128.00;-1.00;-1.00;133814;1193;1096868;-86
2021/10/26 02:34:28;;;;;;;20.70;10.50;;;;;;;-128.00;-1.00;-1.00;134097;1202;1097352;-88
2021/10/26 02:37:34;;;;;;;18.60;10.40;;;;;;;-128.00;-1.00;-1.00;134087;1201;1097421;-89
2021/10/26 02:40:39;;;;;;;18.70;10.30;;;;;;;-128.00;-1.00;-1.00;134073;1202;1095709;-85
2021/10/26 02:43:45;;;;;;;19.40;11.00;;;;;;;-128.00;-1.00;-1.00;134068;1201;1096583;-86
2021/10/26 02:46:51;;;;;;;18.90;10.40;;;;;;;-128.00;-1.00;-1.00;134029;1202;1096989;-84
2021/10/26 02:49:56;;;;;;;17.90;10.10;;;;;;;-128.00;-1.00;-1.00;133840;1202;1095820;-85
2021/10/26 02:53:02;;;;;;;17.00;9.70;;;;;;;-128.00;-1.00;-1.00;134191;1202;1096403;-80
2021/10/26 02:56:08;;;;;;;16.10;9.50;;;;;;;-128.00;-1.00;-1.00;133695;1201;1096332;-78
2021/10/26 02:59:14;;;;;;;18.10;9.40;;;;;;;-128.00;-1.00;-1.00;133579;1202;1097520;-79
2021/10/26 03:02:19;;;;;;;17.00;10.10;;;;;;;-128.00;-1.00;-1.00;133639;1203;1096974;-82
2021/10/26 03:05:25;;;;;;;16.90;10.10;;;;;;;-128.00;-1.00;-1.00;133703;1201;1096548;-78
2021/10/26 03:08:32;;;;;;;18.40;10.00;;;;;;;-128.00;-1.00;-1.00;133698;1201;1095409;-78
2021/10/26 03:11:38;;;;;;;18.10;10.00;;;;;;;-128.00;-1.00;-1.00;133613;1202;1096765;-76
2021/10/26 03:14:44;;;;;;;17.70;9.70;;;;;;;-128.00;-1.00;-1.00;133668;1204;1095997;-77
2021/10/26 03:17:51;;;;;;;18.00;10.30;;;;;;;-128.00;-1.00;-1.00;133634;1203;1095926;-76
2021/10/26 03:20:58;;;;;;;18.80;10.50;;;;;;;-128.00;-1.00;-1.00;133696;1202;1096280;-76
2021/10/26 03:24:06;;;;;;;18.90;10.30;;;;;;;-128.00;-1.00;-1.00;133656;1203;1096674;-75
2021/10/26 03:27:12;;;;;;;18.50;8.70;;;;;;;-128.00;-1.00;-1.00;133629;1206;1094373;-76
2021/10/26 03:30:18;;;;;;;18.20;9.70;;;;;;;-128.00;-1.00;-1.00;133656;1202;1097308;-75
2021/10/26 03:33:23;;;;;;;14.20;8.20;;;;;;;-128.00;-1.00;-1.00;133596;1201;1096631;-76
2021/10/26 03:36:34;;;;;;;19.70;9.70;;;;;;;-128.00;-1.00;-1.00;133675;1203;1096312;-77
2021/10/26 03:39:40;;;;;;;18.10;10.10;;;;;;;-128.00;-1.00;-1.00;133661;1202;1097504;-75
2021/10/26 03:42:45;;;;;;;18.20;10.00;;;;;;;-128.00;-1.00;-1.00;133596;1203;1096020;-76
2021/10/26 03:45:51;;;;;;;29.50;15.90;;;;;;;-128.00;-1.00;-1.00;133577;1207;1096652;-76
2021/10/26 03:48:56;;;;;;;36.70;19.10;;;;;;;-128.00;-1.00;-1.00;133564;1202;1098382;-75
2021/10/26 03:52:02;;;;;;;143.20;70.50;;;;;;;-128.00;-1.00;-1.00;133598;1203;1097105;-75
2021/10/26 03:55:09;;;;;;;113.00;56.10;;;;;;;-128.00;-1.00;-1.00;133615;1203;1095761;-77
2021/10/26 03:58:16;;;;;;;148.10;73.10;;;;;;;-128.00;-1.00;-1.00;133687;1203;1093723;-76
2021/10/26 04:01:26;;;;;;;70.80;35.40;;;;;;;-128.00;-1.00;-1.00;133633;1203;1095778;-78
2021/10/26 04:04:32;;;;;;;102.20;54.40;;;;;;;-128.00;-1.00;-1.00;133830;1199;1097087;-80
2021/10/26 04:07:46;;;;;;;35.40;21.20;;;;;;;-128.00;-1.00;-1.00;133658;1202;1097104;-80
2021/10/26 04:10:54;;;;;;;19.60;11.00;;;;;;;-128.00;-1.00;-1.00;133730;1203;1096438;-78
2021/10/26 04:13:59;;;;;;;19.30;12.00;;;;;;;-128.00;-1.00;-1.00;133624;1202;1094878;-78
2021/10/26 04:17:05;;;;;;;19.40;10.90;;;;;;;-128.00;-1.00;-1.00;133562;1203;1097274;-77
2021/10/26 04:20:12;;;;;;;15.80;10.10;;;;;;;-128.00;-1.00;-1.00;133670;1202;1095853;-78
2021/10/26 04:23:17;;;;;;;20.10;10.70;;;;;;;-128.00;-1.00;-1.00;133638;1201;1095767;-79
2021/10/26 04:26:23;;;;;;;18.50;10.30;;;;;;;-128.00;-1.00;-1.00;133905;1202;1096201;-81
2021/10/26 04:29:29;;;;;;;17.40;10.20;;;;;;;-128.00;-1.00;-1.00;133638;1201;1097244;-80
2021/10/26 04:32:34;;;;;;;19.20;10.60;;;;;;;-128.00;-1.00;-1.00;133742;1203;1096398;-81
2021/10/26 04:35:44;;;;;;;19.10;11.30;;;;;;;-128.00;-1.00;-1.00;133743;1203;1096766;-80
2021/10/26 04:38:50;;;;;;;21.20;11.50;;;;;;;-128.00;-1.00;-1.00;133774;1203;1096562;-80
2021/10/26 04:41:55;;;;;;;18.30;10.10;;;;;;;-128.00;-1.00;-1.00;133868;1200;1096520;-76
2021/10/26 04:45:01;;;;;;;16.40;9.50;;;;;;;-128.00;-1.00;-1.00;133873;1200;1096512;-76
2021/10/26 04:48:16;;;;;;;16.20;9.40;;;;;;;-128.00;-1.00;-1.00;133829;1200;1095676;-77
2021/10/26 04:51:21;;;;;;;16.50;8.90;;;;;;;-128.00;-1.00;-1.00;133687;1200;1094124;-78
2021/10/26 04:54:27;;;;;;;57.90;26.70;;;;;;;-128.00;-1.00;-1.00;133659;1202;1095622;-79
2021/10/26 04:57:41;;;;;;;44.50;24.00;;;;;;;-128.00;-1.00;-1.00;133834;1193;1096477;-79
2021/10/26 05:00:59;;;;;;;21.90;12.20;;;;;;;-128.00;-1.00;-1.00;133696;1202;1097532;-77
2021/10/26 05:04:07;;;;;;;21.60;12.90;;;;;;;-128.00;-1.00;-1.00;133634;1203;1094287;-78
2021/10/26 05:07:13;;;;;;;30.80;18.60;;;;;;;-128.00;-1.00;-1.00;133686;1200;1097898;-77
2021/10/26 05:10:18;;;;;;;33.00;20.80;;;;;;;-128.00;-1.00;-1.00;133764;1200;1096303;-81
2021/10/26 05:13:24;;;;;;;23.60;14.20;;;;;;;-128.00;-1.00;-1.00;133761;1203;1096864;-79
2021/10/26 05:16:48;;;;;;;20.10;11.50;;;;;;;-128.00;-1.00;-1.00;133874;1200;1097113;-82
2021/10/26 05:20:15;;;;;;;19.90;11.50;;;;;;;-128.00;-1.00;-1.00;133909;1200;1095810;-82
2021/10/26 05:23:44;;;;;;;20.80;11.00;;;;;;;-128.00;-1.00;-1.00;133959;1200;1097919;-81
2021/10/26 05:27:08;;;;;;;15.60;8.20;;;;;;;-128.00;-1.00;-1.00;133881;1203;1096271;-80
2021/10/26 05:30:14;;;;;;;17.50;9.50;;;;;;;-128.00;-1.00;-1.00;133750;1203;1096140;-82
2021/10/26 05:33:20;;;;;;;19.30;11.60;;;;;;;-128.00;-1.00;-1.00;133968;1200;1097355;-81
2021/10/26 05:36:25;;;;;;;30.80;17.10;;;;;;;-128.00;-1.00;-1.00;133815;1200;1096023;-80
2021/10/26 05:39:31;;;;;;;26.30;14.30;;;;;;;-128.00;-1.00;-1.00;133842;1200;1096424;-79
2021/10/26 05:42:36;;;;;;;54.40;31.20;;;;;;;-128.00;-1.00;-1.00;133782;1203;1096596;-81
2021/10/26 05:45:45;;;;;;;249.70;122.10;;;;;;;-128.00;-1.00;-1.00;133786;1203;1096696;-81
2021/10/26 05:48:51;;;;;;;146.40;68.20;;;;;;;-128.00;-1.00;-1.00;133982;1200;1094002;-82
2021/10/26 05:51:56;;;;;;;56.30;29.20;;;;;;;-128.00;-1.00;-1.00;133821;1200;1095831;-78
2021/10/26 05:55:02;;;;;;;43.80;24.20;;;;;;;-128.00;-1.00;-1.00;133840;1206;1096492;-79
2021/10/26 05:58:10;;;;;;;24.20;14.60;;;;;;;-128.00;-1.00;-1.00;133649;1203;1096591;-78
2021/10/26 06:01:17;;;;;;;36.60;19.50;;;;;;;-128.00;-1.00;-1.00;133954;1200;1097870;-78
2021/10/26 06:04:24;;;;;;;87.00;45.10;;;;;;;-128.00;-1.00;-1.00;133915;1200;1098345;-79
2021/10/26 06:07:30;;;;;;;61.50;34.50;;;;;;;-128.00;-1.00;-1.00;133857;1200;1093866;-79
2021/10/26 06:10:40;;;;;;;82.20;47.40;;;;;;;-128.00;-1.00;-1.00;133679;1200;1097282;-80
2021/10/26 06:13:48;;;;;;;45.50;27.00;;;;;;;-128.00;-1.00;-1.00;133914;1200;1098010;-78
2021/10/26 06:16:54;;;;;;;28.20;16.90;;;;;;;-128.00;-1.00;-1.00;133670;1200;1096959;-79
2021/10/26 06:20:00;;;;;;;34.80;18.60;;;;;;;-128.00;-1.00;-1.00;133839;1200;1096457;-79
2021/10/26 06:23:06;;;;;;;33.30;19.70;;;;;;;-128.00;-1.00;-1.00;133755;1200;1095068;-79
2021/10/26 06:26:11;;;;;;;23.90;14.60;;;;;;;-128.00;-1.00;-1.00;133667;1200;1096918;-79
2021/10/26 06:29:30;;;;;;;72.50;41.20;;;;;;;-128.00;-1.00;-1.00;133813;1200;1096905;-80
2021/10/26 06:32:54;;;;;;;95.40;48.40;;;;;;;-128.00;-1.00;-1.00;133763;1200;1096184;-80
2021/10/26 06:36:38;;;;;;;46.50;23.00;;;;;;;-128.00;-1.00;-1.00;133428;1203;1097201;-80
2021/10/26 06:39:44;;;;;;;40.10;22.30;;;;;;;-128.00;-1.00;-1.00;133406;1203;1097352;-78
2021/10/26 06:42:49;;;;;;;40.40;22.40;;;;;;;-128.00;-1.00;-1.00;133739;1200;1096923;-79
2021/10/26 06:46:15;;;;;;;29.60;14.90;;;;;;;-128.00;-1.00;-1.00;133595;1201;1096251;-79
2021/10/26 06:49:39;;;;;;;29.00;15.40;;;;;;;-128.00;-1.00;-1.00;133812;1200;1097977;-79
2021/10/26 06:53:04;;;;;;;30.10;15.10;;;;;;;-128.00;-1.00;-1.00;133781;1200;1097099;-77
2021/10/26 06:56:35;;;;;;;26.70;14.40;;;;;;;-128.00;-1.00;-1.00;133620;1203;1096386;-79
2021/10/26 06:59:59;;;;;;;24.30;13.20;;;;;;;-128.00;-1.00;-1.00;133620;1201;1097216;-78
2021/10/26 07:03:23;;;;;;;28.30;15.50;;;;;;;-128.00;-1.00;-1.00;133997;1200;1097427;-84
2021/10/26 07:07:05;;;;;;;24.90;14.50;;;;;;;-128.00;-1.00;-1.00;133865;1200;1094625;-80
2021/10/26 07:10:25;;;;;;;27.90;13.90;;;;;;;-128.00;-1.00;-1.00;134111;1200;1097037;-80
2021/10/26 07:13:39;;;;;;;21.50;11.80;;;;;;;-128.00;-1.00;-1.00;133655;1202;1096576;-80
2021/10/26 07:16:45;;;;;;;17.80;11.10;;;;;;;-128.00;-1.00;-1.00;133815;1203;1094248;-79
2021/10/26 07:19:52;;;;;;;19.60;11.50;;;;;;;-128.00;-1.00;-1.00;133608;1203;1094175;-80
2021/10/26 07:23:07;;;;;;;18.50;12.10;;;;;;;-128.00;-1.00;-1.00;133643;1203;1097626;-80
2021/10/26 07:26:33;;;;;;;18.90;11.40;;;;;;;-128.00;-1.00;-1.00;133841;1200;1096310;-81
2021/10/26 07:29:39;;;;;;;20.20;13.70;;;;;;;-128.00;-1.00;-1.00;133788;1203;1096349;-78
2021/10/26 07:32:46;;;;;;;16.10;11.00;;;;;;;-128.00;-1.00;-1.00;133741;1208;1094831;-81
2021/10/26 07:35:54;;;;;;;17.50;11.50;;;;;;;-128.00;-1.00;-1.00;133862;1202;1095234;-80
2021/10/26 07:39:04;;;;;;;18.30;11.70;;;;;;;-128.00;-1.00;-1.00;133740;1200;1094194;-81
2021/10/26 07:42:10;;;;;;;17.50;12.20;;;;;;;-128.00;-1.00;-1.00;133782;1200;1097298;-81
2021/10/26 07:45:35;;;;;;;16.10;10.90;;;;;;;-128.00;-1.00;-1.00;133664;1203;1093919;-81
2021/10/26 07:48:41;;;;;;;16.20;10.80;;;;;;;-128.00;-1.00;-1.00;133719;1193;1095479;-81
2021/10/26 07:51:46;;;;;;;23.20;12.40;;;;;;;-128.00;-1.00;-1.00;133708;1204;1096986;-81
2021/10/26 07:54:54;;;;;;;16.60;10.20;;;;;;;-128.00;-1.00;-1.00;133520;1202;1096570;-81
2021/10/26 07:58:00;;;;;;;15.50;9.90;;;;;;;-128.00;-1.00;-1.00;133710;1200;1094281;-81
2021/10/26 08:01:06;;;;;;;19.70;11.40;;;;;;;-128.00;-1.00;-1.00;133567;1203;1096167;-80
2021/10/26 08:04:23;;;;;;;19.10;11.60;;;;;;;-128.00;-1.00;-1.00;133679;1201;1096276;-81
2021/10/26 08:07:42;;;;;;;18.60;12.00;;;;;;;-128.00;-1.00;-1.00;133785;1194;1096650;-81
2021/10/26 08:10:48;;;;;;;15.50;10.60;;;;;;;-128.00;-1.00;-1.00;133703;1202;1097084;-81
2021/10/26 08:13:54;;;;;;;17.30;11.00;;;;;;;-128.00;-1.00;-1.00;133705;1202;1097266;-82
2021/10/26 08:17:00;;;;;;;16.40;11.20;;;;;;;-128.00;-1.00;-1.00;133727;1203;1096371;-82
2021/10/26 08:20:08;;;;;;;17.50;10.70;;;;;;;-128.00;-1.00;-1.00;133693;1201;1097068;-81
2021/10/26 08:23:17;;;;;;;15.20;10.80;;;;;;;-128.00;-1.00;-1.00;133666;1202;1095833;-80
2021/10/26 08:26:28;;;;;;;17.70;10.70;;;;;;;-128.00;-1.00;-1.00;133670;1202;1093764;-81
2021/10/26 08:29:43;;;;;;;19.60;11.50;;;;;;;-128.00;-1.00;-1.00;133763;1208;1097300;-79
2021/10/26 08:32:55;;;;;;;15.40;11.30;;;;;;;-128.00;-1.00;-1.00;133699;1203;1093658;-81
2021/10/26 08:36:04;;;;;;;16.10;10.70;;;;;;;-128.00;-1.00;-1.00;133716;1200;1097074;-79
2021/10/26 08:39:12;;;;;;;14.00;9.20;;;;;;;-128.00;-1.00;-1.00;133661;1203;1096158;-81
2021/10/26 08:42:23;;;;;;;18.30;9.90;;;;;;;-128.00;-1.00;-1.00;133701;1202;1097306;-82
2021/10/26 08:45:28;;;;;;;18.10;10.90;;;;;;;-128.00;-1.00;-1.00;133671;1203;1096232;-81
2021/10/26 08:48:40;;;;;;;14.60;9.60;;;;;;;-128.00;-1.00;-1.00;133718;1200;1096525;-81
2021/10/26 08:52:07;;;;;;;17.20;11.20;;;;;;;-128.00;-1.00;-1.00;133865;1201;1094919;-81
2021/10/26 08:55:14;;;;;;;18.30;11.60;;;;;;;-128.00;-1.00;-1.00;133994;1200;1097208;-82
2021/10/26 08:58:49;;;;;;;19.20;11.50;;;;;;;-128.00;-1.00;-1.00;133774;1201;1095730;-81
2021/10/26 09:01:58;;;;;;;18.90;12.00;;;;;;;-128.00;-1.00;-1.00;133763;1200;1094309;-82
2021/10/26 09:05:13;;;;;;;20.40;12.20;;;;;;;-128.00;-1.00;-1.00;133802;1200;1094907;-82
2021/10/26 09:08:22;;;;;;;17.90;11.50;;;;;;;-128.00;-1.00;-1.00;133785;1201;1096491;-82
2021/10/26 09:11:39;;;;;;;16.90;11.20;;;;;;;-128.00;-1.00;-1.00;133730;1201;1094393;-83
2021/10/26 09:18:44;;;;;;;17.30;11.10;;;;;;;-128.00;-1.00;-1.00;133707;1202;1096452;-82
2021/10/26 09:22:10;;;;;;;16.90;11.00;;;;;;;-128.00;-1.00;-1.00;133762;1200;1095901;-82
2021/10/26 09:25:15;;;;;;;16.60;10.30;;;;;;;-128.00;-1.00;-1.00;133726;1203;1096599;-82
2021/10/26 09:28:22;;;;;;;16.40;11.10;;;;;;;-128.00;-1.00;-1.00;133763;1201;1095658;-82
2021/10/26 09:31:31;;;;;;;15.70;10.70;;;;;;;-128.00;-1.00;-1.00;133776;1202;1096708;-80
2021/10/26 09:34:43;;;;;;;16.10;11.30;;;;;;;-128.00;-1.00;-1.00;133870;1201;1094634;-82
2021/10/26 09:37:52;;;;;;;16.70;11.90;;;;;;;-128.00;-1.00;-1.00;133733;1201;1095972;-82
2021/10/26 09:41:07;;;;;;;17.10;11.00;;;;;;;-128.00;-1.00;-1.00;133765;1200;1094349;-82
2021/10/26 09:44:14;;;;;;;16.40;9.70;;;;;;;-128.00;-1.00;-1.00;133853;1200;1093914;-82
2021/10/26 09:47:25;;;;;;;16.20;9.80;;;;;;;-128.00;-1.00;-1.00;133775;1200;1097253;-80
2021/10/26 09:50:33;;;;;;;15.30;10.50;;;;;;;-128.00;-1.00;-1.00;133786;1201;1093777;-81
2021/10/26 09:53:38;;;;;;;15.50;9.90;;;;;;;-128.00;-1.00;-1.00;133762;1201;1094056;-82
2021/10/26 09:57:01;;;;;;;15.50;10.50;;;;;;;-128.00;-1.00;-1.00;133738;1200;1096535;-82
2021/10/26 10:00:09;;;;;;;16.80;10.50;;;;;;;-128.00;-1.00;-1.00;133857;1197;1096813;-82
2021/10/26 10:03:23;;;;;;;14.50;10.10;;;;;;;-128.00;-1.00;-1.00;133707;1200;1096995;-82
2021/10/26 10:06:48;;;;;;;16.60;10.60;;;;;;;-128.00;-1.00;-1.00;133704;1200;1096917;-79
2021/10/26 10:09:57;;;;;;;17.30;11.40;;;;;;;-128.00;-1.00;-1.00;133773;1200;1094261;-82
2021/10/26 10:13:04;;;;;;;17.40;11.10;;;;;;;-128.00;-1.00;-1.00;133780;1201;1096413;-82
2021/10/26 10:16:13;;;;;;;16.90;11.50;;;;;;;-128.00;-1.00;-1.00;133796;1200;1094748;-82
2021/10/26 10:19:19;;;;;;;16.50;11.30;;;;;;;-128.00;-1.00;-1.00;133799;1200;1097226;-83
2021/10/26 10:22:28;;;;;;;16.00;11.40;;;;;;;-128.00;-1.00;-1.00;133658;1201;1096984;-80
2021/10/26 10:25:34;;;;;;;17.60;11.30;;;;;;;-128.00;-1.00;-1.00;133772;1202;1097582;-81
2021/10/26 10:28:44;;;;;;;18.60;11.30;;;;;;;-128.00;-1.00;-1.00;133678;1200;1095734;-81
2021/10/26 10:31:51;;;;;;;18.20;11.60;;;;;;;-128.00;-1.00;-1.00;133738;1200;1096227;-83
2021/10/26 10:34:58;;;;;;;15.80;11.60;;;;;;;-128.00;-1.00;-1.00;133722;1200;1096955;-83
2021/10/26 10:38:07;;;;;;;19.50;11.80;;;;;;;-128.00;-1.00;-1.00;133919;1200;1097462;-82
2021/10/26 10:41:25;;;;;;;18.20;12.00;;;;;;;-128.00;-1.00;-1.00;133739;1200;1096119;-83
2021/10/26 10:44:41;;;;;;;18.80;10.70;;;;;;;-128.00;-1.00;-1.00;133768;1203;1094128;-82
2021/10/26 10:47:47;;;;;;;16.60;10.60;;;;;;;-128.00;-1.00;-1.00;133788;1200;1096812;-82
2021/10/26 10:51:08;;;;;;;16.70;10.90;;;;;;;-128.00;-1.00;-1.00;133793;1193;1093906;-82
2021/10/26 10:54:44;;;;;;;17.30;10.60;;;;;;;-128.00;-1.00;-1.00;133934;1200;1094403;-82
2021/10/26 10:57:50;;;;;;;14.80;10.40;;;;;;;-128.00;-1.00;-1.00;133893;1200;1095859;-82
2021/10/26 11:01:16;;;;;;;13.70;10.30;;;;;;;-128.00;-1.00;-1.00;133897;1200;1096621;-82
2021/10/26 11:04:40;;;;;;;13.70;10.00;;;;;;;-128.00;-1.00;-1.00;133840;1200;1094490;-82
2021/10/26 11:07:54;;;;;;;16.00;10.70;;;;;;;-128.00;-1.00;-1.00;133784;1200;1096268;-82
2021/10/26 11:11:04;;;;;;;14.90;10.30;;;;;;;-128.00;-1.00;-1.00;133824;1200;1097350;-82
2021/10/26 11:14:21;;;;;;;16.70;10.90;;;;;;;-128.00;-1.00;-1.00;133785;1200;1094950;-83
2021/10/26 11:18:02;;;;;;;14.20;10.10;;;;;;;-128.00;-1.00;-1.00;133775;1200;1096239;-83
2021/10/26 11:21:10;;;;;;;13.40;9.90;;;;;;;-128.00;-1.00;-1.00;133716;1200;1097212;-82
2021/10/26 11:24:15;;;;;;;17.70;9.10;;;;;;;-128.00;-1.00;-1.00;133805;1200;1093920;-82
2021/10/26 11:30:52;;;;;;;12.60;9.50;;;;;;;;;;136906;1210;634638;-82
2021/10/26 11:34:17;;;;;;;13.90;9.30;;;;;;;;;;138701;1193;95694;-82
2021/10/26 11:37:23;;;;;;;18.10;11.30;;;;;;;;;;138699;1201;95303;-82
2021/10/26 11:40:28;;;;;;;58.10;38.20;;;;;;;;;;138694;1201;95659;-82
2021/10/26 11:43:38;;;;;;;96.60;43.80;;;;;;;;;;138669;1193;95682;-82
2021/10/26 11:46:43;;;;;;;40.30;23.60;;;;;;;;;;138657;1193;95597;-82
2021/10/26 11:49:47;;;;;;;29.00;20.90;;;;;;;;;;138683;1193;94878;-83
2021/10/26 11:52:51;;;;;;;19.00;12.00;;;;;;;;;;138702;1194;95776;-82
2021/10/26 11:55:55;;;;;;;23.20;16.00;;;;;;;;;;138675;1193;95529;-82
2021/10/26 11:59:01;;;;;;;38.00;24.30;;;;;;;;;;138645;1193;94766;-81
2021/10/26 12:02:10;;;;;;;48.50;30.30;;;;;;;;;;138655;1194;96226;-81
2021/10/26 12:05:19;;;;;;;50.80;30.80;;;;;;;;;;138649;1193;96004;-81
2021/10/26 12:08:25;;;;;;;30.40;19.40;;;;;;;;;;138699;1193;94946;-81
2021/10/26 12:11:32;;;;;;;27.80;19.90;;;;;;;;;;138707;1201;95745;-80
2021/10/26 12:14:36;;;;;;;24.00;16.80;;;;;;;;;;138705;1192;95855;-81
2021/10/26 12:17:40;;;;;;;26.10;20.00;;;;;;;;;;138669;1193;95706;-81
2021/10/26 12:20:44;;;;;;;17.80;12.20;;;;;;;;;;138621;1193;95869;-83
2021/10/26 12:23:53;;;;;;;15.10;11.10;;;;;;;;;;138684;1193;95057;-82
2021/10/26 12:27:03;;;;;;;30.70;24.90;;;;;;;;;;138690;1187;95652;-82
2021/10/26 12:30:12;;;;;;;54.20;44.00;;;;;;;;;;138776;1193;96187;-82
2021/10/26 12:33:20;;;;;;;31.40;23.60;;;;;;;;;;138930;1193;95740;-82
2021/10/26 12:36:24;;;;;;;21.40;14.70;;;;;;;;;;138849;1196;95696;-82
2021/10/26 12:39:28;;;;;;;46.30;37.00;;;;;;;;;;138808;1193;95776;-81
2021/10/26 12:42:34;;;;;;;23.00;17.60;;;;;;;;;;138871;1193;95519;-82
2021/10/26 12:45:40;;;;;;;18.20;13.20;;;;;;;;;;138790;1193;95599;-82
2021/10/26 12:48:44;;;;;;;22.20;17.80;;;;;;;;;;138873;1200;95761;-82
2021/10/26 12:51:48;;;;;;;28.70;23.30;;;;;;;;;;138832;1193;95698;-82
2021/10/26 12:54:52;;;;;;;24.80;18.40;;;;;;;;;;138856;1193;95675;-82
2021/10/26 12:57:56;;;;;;;16.10;12.40;;;;;;;;;;138833;1196;95696;-82
2021/10/26 13:01:00;;;;;;;18.50;14.10;;;;;;;;;;138841;1199;96018;-82
2021/10/26 13:04:13;;;;;;;141.80;71.00;;;;;;;;;;138823;1197;95687;-82
2021/10/26 13:07:25;;;;;;;225.60;101.80;;;;;;;;;;138876;1199;95633;-82
2021/10/26 13:10:30;;;;;;;212.60;98.30;;;;;;;;;;138928;1193;95659;-82
2021/10/26 13:13:34;;;;;;;139.60;65.40;;;;;;;;;;138787;1199;95888;-82
2021/10/26 13:16:40;;;;;;;64.30;33.80;;;;;;;;;;138836;1194;95821;-82
2021/10/26 13:19:44;;;;;;;27.00;16.40;;;;;;;;;;138846;1193;95766;-82
2021/10/26 13:22:55;;;;;;;18.80;12.20;;;;;;;;;;138813;1193;95631;-82
2021/10/26 13:26:01;;;;;;;16.60;10.90;;;;;;;;;;138807;1193;95797;-83
2021/10/26 13:29:07;;;;;;;19.10;14.60;;;;;;;;;;138888;1193;95678;-82
2021/10/26 13:32:21;;;;;;;19.10;14.70;;;;;;;;;;139082;1193;95563;-83
2021/10/26 13:35:25;;;;;;;14.10;11.40;;;;;;;;;;139103;1193;95719;-81
2021/10/26 13:38:30;;;;;;;19.00;12.20;;;;;;;;;;139154;1193;95570;-83
2021/10/26 13:41:35;;;;;;;19.70;12.20;;;;;;;;;;139131;1193;94934;-81
2021/10/26 13:44:40;;;;;;;18.80;11.40;;;;;;;;;;139050;1193;95658;-81
2021/10/26 13:47:45;;;;;;;17.20;10.60;;;;;;;;;;139155;1193;95667;-81
2021/10/26 13:50:50;;;;;;;166.20;100.30;;;;;;;;;;139217;1199;95621;-83
2021/10/26 13:53:54;;;;;;;133.90;78.10;;;;;;;;;;139230;1193;95591;-84
2021/10/26 13:56:58;;;;;;;554.50;323.10;;;;;;;;;;139340;1193;95629;-83
2021/10/26 14:00:08;;;;;;;414.90;218.30;;;;;;;;;;138887;1193;95848;-85
2021/10/26 14:03:16;;;;;;;245.60;116.70;;;;;;;;;;138893;1193;95630;-87
2021/10/26 14:06:22;;;;;;;130.00;75.30;;;;;;;;;;138932;1192;95405;-78
2021/10/26 14:09:25;;;;;;;82.60;49.20;;;;;;;;;;138772;1193;96106;-83
2021/10/26 14:12:29;;;;;;;101.00;66.40;;;;;;;;;;138900;1192;95742;-78
2021/10/26 14:15:34;;;;;;;93.80;65.80;;;;;;;;;;138773;1193;95814;-83
2021/10/26 14:18:39;;;;;;;31.40;22.90;;;;;;;;;;139235;1193;95721;-84
2021/10/26 14:21:43;;;;;;;20.90;15.20;;;;;;;;;;139258;1194;95666;-82
2021/10/26 14:24:47;;;;;;;19.10;11.70;;;;;;;;;;139665;1192;95612;-79
2021/10/26 14:27:52;;;;;;;16.00;11.10;;;;;;;;;;139569;1192;95956;-83
2021/10/26 14:30:58;;;;;;;14.60;9.50;;;;;;;;;;139248;1193;94947;-78
2021/10/26 14:34:02;;;;;;;14.60;9.30;;;;;;;;;;139065;1192;96024;-81
2021/10/26 14:37:13;;;;;;;13.30;9.50;;;;;;;;;;139206;1194;95646;-82
2021/10/26 14:40:40;;;;;;;62.20;38.40;;;;;;;;;;139092;1193;95734;-80
2021/10/26 14:57:10;;;;;;;15.70;11.00;;;;;;;;;;139095;1199;95755;-84
2021/10/26 15:00:15;;;;;;;16.80;9.40;;;;;;;;;;139095;1193;95902;-83
2021/10/26 15:03:18;;;;;;;12.90;8.60;;;;;;;;;;139050;1199;95770;-82
2021/10/26 15:06:22;;;;;;;14.40;8.00;;;;;;;;;;139125;1199;95723;-83
2021/10/26 15:09:30;;;;;;;12.20;8.20;;;;;;;;;;139106;1193;95728;-82
2021/10/26 15:12:39;;;;;;;15.30;9.60;;;;;;;;;;139178;1193;95639;-82
2021/10/26 15:15:43;;;;;;;15.50;9.10;;;;;;;;;;139147;1193;94959;-85
2021/10/26 15:18:48;;;;;;;13.70;8.70;;;;;;;;;;139131;1193;95767;-89